This is the latest recevied weather packets stored in our database for station/object SR7U-1. If no packets are shown the sender has not sent any weather packets the latest 10 day(s).
| Time | Temp. | Humidity | Pressure | Rain* | Wind** | Luminosity | Snow |
|---|---|---|---|---|---|---|---|
| 1777965385 | 19.44° C | 39% | 1011 hPa | - | - | - | - |
| 1777964549 | 18.89° C | 44% | 1011.1 hPa | - | - | - | - |
| 1777963805 | 18.89° C | 43% | 1011.1 hPa | - | - | - | - |
| 1777963045 | 20° C | 41% | 1011.1 hPa | - | - | - | - |
| 1777962150 | 18.33° C | 40% | 1011.2 hPa | - | - | - | - |
| 1777961315 | 17.78° C | 44% | 1011.3 hPa | - | - | - | - |
| 1777960447 | 16.67° C | 48% | 1011.2 hPa | - | - | - | - |
| 1777959627 | 15° C | 53% | 1011.2 hPa | - | - | - | - |
| 1777958885 | 14.44° C | 56% | 1011.3 hPa | - | - | - | - |
| 1777957985 | 13.33° C | 59% | 1011.2 hPa | - | - | - | - |
| 1777957120 | 12.78° C | 60% | 1011.2 hPa | - | - | - | - |
| 1777956390 | 12.78° C | 60% | 1011.3 hPa | - | - | - | - |
| 1777955489 | 12.22° C | 64% | 1011.2 hPa | - | - | - | - |
| 1777954715 | 11.11° C | 66% | 1011.2 hPa | - | - | - | - |
| 1777953919 | 11.11° C | 66% | 1011.1 hPa | - | - | - | - |
| 1777953105 | 10° C | 69% | 1011.2 hPa | - | - | - | - |
| 1777952295 | 9.44° C | 70% | 1011.2 hPa | - | - | - | - |
| 1777951460 | 8.89° C | 73% | 1011.2 hPa | - | - | - | - |
| 1777950610 | 8.33° C | 74% | 1011.2 hPa | - | - | - | - |
| 1777949860 | 8.89° C | 74% | 1011.4 hPa | - | - | - | - |
| 1777948995 | 8.89° C | 73% | 1011.4 hPa | - | - | - | - |
| 1777948255 | 8.89° C | 74% | 1011.4 hPa | - | - | - | - |
| 1777947440 | 8.89° C | 74% | 1011.6 hPa | - | - | - | - |
| 1777946645 | 9.44° C | 72% | 1011.6 hPa | - | - | - | - |
| 1777945760 | 9.44° C | 74% | 1011.6 hPa | - | - | - | - |
* Rain since midnight (hover to see other rain measurements)
** Current wind speed in m/s (hover to see current wind gust speed)